Time;durP1;ratioP1;P1;durP2;ratioP2;P2;SDS_P1;SDS_P2;PMS_P1;PMS_P2;Temp;Humidity;BMP_temperature;BMP_pressure;BME280_temperature;BME280_humidity;BME280_pressure;Samples;Min_cycle;Max_cycle;Signal;HPM_P1;HPM_P2
2021/07/01 00:02:39;;;;;;;8.18;7.40;;;;;;;39.93;25.54;94065.97;5133279;27;20687;-53
2021/07/01 00:05:21;;;;;;;8.80;7.82;;;;;;;39.67;25.80;94066.72;5071962;28;20876;-53
2021/07/01 00:08:01;;;;;;;8.20;7.38;;;;;;;40.18;25.13;94073.44;5071787;28;20390;-57
2021/07/01 00:10:43;;;;;;;8.90;7.57;;;;;;;40.27;25.06;94065.03;5071938;28;20397;-52
2021/07/01 00:13:25;;;;;;;8.38;7.55;;;;;;;39.99;25.32;94058.59;5071972;28;20378;-53
2021/07/01 00:16:06;;;;;;;8.38;7.50;;;;;;;40.05;25.10;94078.53;5128292;27;20493;-55
2021/07/01 00:18:48;;;;;;;9.60;7.70;;;;;;;39.87;25.59;94067.91;5071818;28;20409;-58
2021/07/01 00:21:29;;;;;;;9.48;7.97;;;;;;;39.59;25.92;94071.13;5071844;28;20389;-54
2021/07/01 00:24:13;;;;;;;8.68;7.78;;;;;;;39.85;25.46;94064.91;5072299;28;20386;-53
2021/07/01 00:26:54;;;;;;;9.82;7.53;;;;;;;39.96;25.39;94065.78;5072083;28;20387;-52
2021/07/01 00:29:36;;;;;;;8.43;7.55;;;;;;;40.07;24.99;94065.13;5071647;28;20387;-54
2021/07/01 00:32:17;;;;;;;8.05;7.22;;;;;;;39.92;25.44;94064.47;5072701;28;20421;-53
2021/07/01 00:34:59;;;;;;;8.02;7.22;;;;;;;39.60;25.69;94072.63;5071964;28;20404;-54
2021/07/01 00:37:41;;;;;;;8.55;7.68;;;;;;;37.68;28.44;94072.19;5059999;28;20389;-54
2021/07/01 00:40:22;;;;;;;9.95;8.10;;;;;;;38.85;26.87;94065.19;5073365;28;20394;-58
2021/07/01 00:43:03;;;;;;;7.75;7.07;;;;;;;39.08;26.29;94056.09;5054960;28;20396;-50
2021/07/01 00:45:44;;;;;;;10.88;7.82;;;;;;;39.30;26.21;94054.84;5071885;28;20402;-52
2021/07/01 00:48:26;;;;;;;8.57;7.57;;;;;;;39.29;26.09;94067.75;5065544;28;20383;-56
2021/07/01 00:51:08;;;;;;;8.35;7.50;;;;;;;39.52;25.93;94060.59;5112514;27;20132;-52
2021/07/01 00:53:48;;;;;;;8.70;7.43;;;;;;;39.60;25.84;94056.22;5092396;27;20896;-53
2021/07/01 00:56:37;;;;;;;8.52;7.70;;;;;;;39.59;25.64;94054.72;5072045;28;20379;-54
2021/07/01 00:59:18;;;;;;;9.23;7.53;;;;;;;39.84;25.30;94063.41;5114960;27;20381;-53
2021/07/01 01:01:59;;;;;;;8.70;7.90;;;;;;;39.42;25.83;94062.69;5071741;28;20379;-53
2021/07/01 01:04:41;;;;;;;8.60;7.80;;;;;;;39.34;26.10;94060.88;5072083;27;20386;-54
2021/07/01 01:07:22;;;;;;;8.43;7.60;;;;;;;39.74;25.45;94055.34;5072180;28;20387;-53
2021/07/01 01:10:05;;;;;;;9.05;8.25;;;;;;;39.66;25.39;94065.22;5070221;28;20982;-52
2021/07/01 01:12:48;;;;;;;7.95;7.13;;;;;;;39.62;25.75;94078.34;5071939;28;20398;-56
2021/07/01 01:15:31;;;;;;;7.82;7.07;;;;;;;39.87;25.27;94076.13;5112632;27;20792;-55
2021/07/01 01:18:12;;;;;;;7.65;6.95;;;;;;;39.91;25.21;94071.19;5072135;28;20406;-53
2021/07/01 01:20:56;;;;;;;8.20;7.20;;;;;;;39.95;25.28;94069.00;5071864;28;20385;-54
2021/07/01 01:23:37;;;;;;;8.98;7.03;;;;;;;39.66;25.39;94065.22;5072131;28;20872;-53
2021/07/01 01:26:19;;;;;;;7.78;6.72;;;;;;;39.62;25.54;94063.94;5071967;28;20712;-53
2021/07/01 01:29:03;;;;;;;8.98;6.95;;;;;;;39.73;25.32;94059.31;5071914;28;20394;-53
2021/07/01 01:31:46;;;;;;;8.20;7.40;;;;;;;39.97;25.09;94061.06;5071539;28;20382;-53
2021/07/01 01:34:53;;;;;;;7.70;6.95;;;;;;;39.57;25.56;94062.66;5072005;28;20146;-54
2021/07/01 01:38:00;;;;;;;8.23;6.53;;;;;;;39.52;25.51;94059.84;5071982;28;20387;-55
2021/07/01 01:40:59;;;;;;;8.13;6.82;;;;;;;39.50;25.61;94063.03;5101700;27;20133;-54
2021/07/01 01:44:06;;;;;;;8.25;6.90;;;;;;;39.47;25.62;94069.47;5072098;28;20142;-53
2021/07/01 01:47:20;;;;;;;10.50;7.00;;;;;;;39.47;25.39;94066.72;5092163;27;20415;-52
2021/07/01 01:50:27;;;;;;;8.07;7.35;;;;;;;39.55;25.26;94067.06;5071716;28;20406;-53
2021/07/01 01:53:34;;;;;;;9.27;7.35;;;;;;;39.09;26.10;94071.25;5072225;28;20146;-53
2021/07/01 01:56:46;;;;;;;11.00;7.30;;;;;;;39.73;24.98;94075.72;5072055;28;20386;-54
2021/07/01 01:59:38;;;;;;;7.70;6.82;;;;;;;39.36;25.59;94074.81;5072044;28;20713;-53
2021/07/01 02:02:40;;;;;;;9.10;7.63;;;;;;;39.16;25.97;94078.28;5071900;28;20791;-55
2021/07/01 02:05:39;;;;;;;7.30;6.70;;;;;;;39.15;25.61;94072.06;5092369;28;20393;-52
2021/07/01 02:08:22;;;;;;;8.13;7.32;;;;;;;39.48;25.31;94070.97;5072184;28;20705;-54
2021/07/01 02:11:04;;;;;;;7.68;6.88;;;;;;;39.47;25.27;94061.25;5071923;28;20386;-53
2021/07/01 02:13:45;;;;;;;8.52;6.80;;;;;;;39.39;25.45;94071.88;5072004;28;20421;-52
2021/07/01 02:17:05;;;;;;;7.78;7.07;;;;;;;39.66;25.12;94078.91;5071918;28;20409;-52
2021/07/01 02:19:48;;;;;;;8.00;6.85;;;;;;;38.97;26.15;94071.56;5092314;27;20392;-53
2021/07/01 02:22:29;;;;;;;8.85;7.50;;;;;;;39.17;25.61;94075.09;5092145;27;20389;-54
2021/07/01 02:25:12;;;;;;;8.00;7.22;;;;;;;39.22;25.56;94084.56;5072091;28;20387;-54
2021/07/01 02:28:00;;;;;;;10.30;7.03;;;;;;;39.02;25.71;94090.75;5071767;28;20394;-52
2021/07/01 02:30:42;;;;;;;8.63;7.47;;;;;;;38.76;25.89;94095.34;5071959;28;20381;-54
2021/07/01 02:33:23;;;;;;;9.52;7.15;;;;;;;39.05;25.61;94089.81;5071842;28;20393;-53
2021/07/01 02:36:05;;;;;;;11.65;7.70;;;;;;;39.09;25.43;94098.59;5071868;28;20387;-54
2021/07/01 02:39:13;;;;;;;8.48;7.13;;;;;;;38.93;25.71;94099.06;5092324;28;20386;-52
2021/07/01 02:41:55;;;;;;;8.68;7.43;;;;;;;39.40;25.29;94102.69;5116006;27;19916;-53
2021/07/01 02:44:36;;;;;;;8.52;7.47;;;;;;;38.89;25.89;94106.72;5072079;28;20401;-53
2021/07/01 02:47:56;;;;;;;9.25;7.25;;;;;;;38.77;25.90;94099.59;5061353;28;20395;-61
2021/07/01 02:50:37;;;;;;;8.35;7.53;;;;;;;38.85;25.81;94104.19;5072058;28;20397;-52
2021/07/01 02:53:18;;;;;;;8.50;7.20;;;;;;;39.09;25.85;94117.72;5071863;28;20736;-53
2021/07/01 02:56:00;;;;;;;8.48;7.30;;;;;;;38.96;25.63;94103.59;5092102;27;20396;-54
2021/07/01 02:58:41;;;;;;;9.90;7.22;;;;;;;39.21;25.64;94118.59;5071873;28;20406;-53
2021/07/01 03:01:47;;;;;;;7.90;7.10;;;;;;;39.03;26.16;94114.09;5071532;28;20387;-53
2021/07/01 03:04:54;;;;;;;9.98;7.72;;;;;;;39.12;25.85;94122.22;5071800;28;20388;-53
2021/07/01 03:07:35;;;;;;;9.95;7.15;;;;;;;39.11;25.84;94131.66;5133410;27;20123;-52
2021/07/01 03:10:17;;;;;;;9.95;7.82;;;;;;;38.50;26.37;94128.69;5072181;28;20385;-54
2021/07/01 03:13:12;;;;;;;9.07;7.22;;;;;;;38.76;26.11;94133.59;5071940;28;20387;-54
2021/07/01 03:15:54;;;;;;;11.07;7.00;;;;;;;38.96;26.06;94141.09;5071817;28;20385;-55
2021/07/01 03:18:35;;;;;;;8.07;7.28;;;;;;;39.16;25.58;94141.91;5072136;28;20383;-54
2021/07/01 03:21:45;;;;;;;9.38;6.72;;;;;;;39.09;25.86;94145.03;5092095;27;20382;-52
2021/07/01 03:24:28;;;;;;;9.00;7.13;;;;;;;39.19;25.59;94137.47;5071743;28;20379;-52
2021/07/01 03:27:09;;;;;;;7.88;7.07;;;;;;;38.81;25.94;94147.34;5092331;28;20395;-51
2021/07/01 03:29:51;;;;;;;8.70;7.05;;;;;;;39.22;25.56;94152.16;5072174;27;20393;-53
2021/07/01 03:32:33;;;;;;;11.65;7.63;;;;;;;39.11;26.03;94158.22;5123230;27;19916;-53
2021/07/01 03:35:14;;;;;;;11.75;7.68;;;;;;;39.19;25.76;94162.06;5071789;28;20732;-54
2021/07/01 03:38:28;;;;;;;11.18;8.07;;;;;;;38.72;26.09;94160.34;5072103;28;20393;-52
2021/07/01 03:41:26;;;;;;;8.30;7.38;;;;;;;39.48;25.31;94158.44;5072206;28;20884;-53
2021/07/01 03:44:09;;;;;;;8.63;7.65;;;;;;;38.93;25.90;94158.44;5091925;27;20699;-52
2021/07/01 03:46:50;;;;;;;7.25;6.65;;;;;;;38.93;26.04;94153.72;5072014;28;20871;-53
2021/07/01 03:49:32;;;;;;;7.97;7.18;;;;;;;39.28;25.80;94148.25;5072131;28;20725;-53
2021/07/01 03:52:31;;;;;;;9.32;7.47;;;;;;;39.33;25.42;94152.31;5112594;27;20379;-55
2021/07/01 03:55:14;;;;;;;8.32;7.47;;;;;;;39.21;25.58;94151.41;5065363;28;20891;-53
2021/07/01 03:57:55;;;;;;;8.60;7.47;;;;;;;39.53;25.32;94141.38;5071840;28;20741;-53
2021/07/01 04:00:38;;;;;;;9.48;6.95;;;;;;;39.31;25.52;94138.38;5092564;28;20393;-54
2021/07/01 04:03:26;;;;;;;7.63;6.80;;;;;;;39.56;25.11;94136.94;5071799;28;20379;-53
2021/07/01 04:06:27;;;;;;;7.60;6.90;;;;;;;39.43;25.63;94129.81;5133201;27;19919;-54
2021/07/01 04:09:09;;;;;;;7.93;7.07;;;;;;;39.52;25.12;94134.41;5072188;28;20393;-53
2021/07/01 04:12:00;;;;;;;9.98;6.97;;;;;;;39.77;24.97;94136.44;5129175;27;20470;-53
2021/07/01 04:14:41;;;;;;;8.57;6.30;;;;;;;39.81;24.87;94132.75;5092054;27;20385;-48
2021/07/01 04:17:42;;;;;;;9.95;7.03;;;;;;;39.44;25.59;94136.03;5091420;27;20385;-51
2021/07/01 04:20:41;;;;;;;7.32;6.63;;;;;;;40.06;24.84;94129.28;5071993;28;20389;-53
2021/07/01 04:23:41;;;;;;;10.50;7.03;;;;;;;40.65;24.20;94128.84;5112100;27;20383;-52
2021/07/01 04:26:40;;;;;;;10.45;6.80;;;;;;;40.64;23.87;94127.34;5072113;28;20389;-50
2021/07/01 04:29:35;;;;;;;9.60;7.10;;;;;;;40.71;23.90;94126.91;5112876;27;19916;-53
2021/07/01 04:32:17;;;;;;;9.40;6.45;;;;;;;40.85;23.78;94131.47;5071906;28;20379;-52
2021/07/01 04:34:59;;;;;;;8.02;6.25;;;;;;;40.49;24.26;94122.00;5120854;27;19920;-66
2021/07/01 04:37:40;;;;;;;11.93;6.72;;;;;;;40.36;24.27;94119.63;5071992;28;20391;-53
2021/07/01 04:40:22;;;;;;;8.57;7.05;;;;;;;40.46;24.32;94133.19;5071952;28;20389;-55
2021/07/01 04:43:03;;;;;;;9.52;6.72;;;;;;;40.35;24.64;94134.56;5092120;28;20399;-54
2021/07/01 04:45:45;;;;;;;9.60;6.72;;;;;;;40.20;24.81;94131.19;5054980;28;20132;-60
2021/07/01 04:48:25;;;;;;;8.15;6.70;;;;;;;40.24;25.01;94133.69;5072214;28;20394;-54
2021/07/01 04:51:07;;;;;;;7.55;6.75;;;;;;;40.61;24.38;94133.81;5072180;28;20398;-65
2021/07/01 04:54:06;;;;;;;9.80;6.38;;;;;;;40.27;25.10;94130.75;5071389;28;20387;-55
2021/07/01 04:57:07;;;;;;;8.68;6.93;;;;;;;39.23;26.49;94129.06;5070286;28;20387;-55
2021/07/01 04:59:48;;;;;;;10.35;6.88;;;;;;;38.78;26.78;94137.38;5072005;27;20394;-56
2021/07/01 05:02:50;;;;;;;9.55;6.93;;;;;;;39.94;25.35;94142.13;5091942;27;20878;-56
2021/07/01 05:05:40;;;;;;;7.05;6.35;;;;;;;40.23;24.77;94148.63;5059683;28;20395;-56
2021/07/01 05:08:21;;;;;;;11.18;6.80;;;;;;;40.47;24.58;94145.63;5072297;28;20405;-54
2021/07/01 05:11:04;;;;;;;7.72;6.65;;;;;;;39.62;25.69;94146.72;5071182;28;20390;-55
2021/07/01 05:13:45;;;;;;;9.80;6.28;;;;;;;39.69;25.47;94146.31;5071824;28;20402;-56
2021/07/01 05:16:32;;;;;;;8.25;6.45;;;;;;;39.84;25.59;94140.75;5071930;28;20404;-53
2021/07/01 05:19:13;;;;;;;8.30;7.22;;;;;;;40.41;24.92;94148.31;5072040;28;20387;-53
2021/07/01 05:22:04;;;;;;;10.45;7.10;;;;;;;39.84;25.98;94140.00;5070726;28;20390;-55
2021/07/01 05:25:05;;;;;;;11.95;7.53;;;;;;;40.41;25.13;94142.09;5071979;28;20410;-54
2021/07/01 05:28:15;;;;;;;10.02;7.03;;;;;;;40.07;25.52;94136.28;5071120;28;20717;-54
2021/07/01 05:31:16;;;;;;;7.75;6.63;;;;;;;40.15;25.35;94131.91;5112436;27;20698;-55
2021/07/01 05:34:35;;;;;;;11.43;6.95;;;;;;;40.96;24.11;94131.56;5090048;28;20405;-54
2021/07/01 05:37:17;;;;;;;9.10;6.75;;;;;;;41.25;23.70;94136.00;5071971;28;20398;-53
2021/07/01 05:40:07;;;;;;;11.13;7.30;;;;;;;40.32;25.41;94130.03;5072137;28;20375;-55
2021/07/01 05:42:49;;;;;;;12.20;7.90;;;;;;;39.91;25.50;94131.38;5072027;28;20394;-53
2021/07/01 05:45:31;;;;;;;10.73;7.68;;;;;;;40.52;25.68;94129.25;5072075;28;20383;-54
2021/07/01 05:48:13;;;;;;;11.20;7.75;;;;;;;40.91;24.65;94132.28;5125028;27;20229;-54
2021/07/01 05:51:02;;;;;;;10.82;7.53;;;;;;;40.68;25.19;94127.88;5084750;27;20387;-55
2021/07/01 05:56:26;;;;;;;10.07;8.65;;;;;;;40.27;25.96;94119.78;5059071;28;20866;-56
2021/07/01 05:59:08;;;;;;;12.23;9.10;;;;;;;40.74;25.75;94125.91;5071602;28;20694;-55
2021/07/01 06:01:49;;;;;;;12.48;9.23;;;;;;;40.55;25.86;94125.53;5071884;28;20708;-54
2021/07/01 06:04:30;;;;;;;14.02;8.77;;;;;;;40.60;25.55;94126.78;5092312;27;20385;-54
2021/07/01 06:07:30;;;;;;;13.13;8.60;;;;;;;41.03;24.97;94129.59;5071306;28;20666;-56
2021/07/01 06:10:11;;;;;;;10.98;8.18;;;;;;;41.36;24.00;94135.28;5072309;28;20397;-56
2021/07/01 06:12:53;;;;;;;10.88;8.70;;;;;;;41.18;25.51;94136.44;5072003;28;20405;-54
2021/07/01 06:15:36;;;;;;;13.35;8.48;;;;;;;41.67;24.72;94125.47;5072041;28;20383;-54
2021/07/01 06:18:21;;;;;;;9.07;7.80;;;;;;;41.02;25.64;94128.09;5062833;28;20894;-55
2021/07/01 06:21:02;;;;;;;10.38;8.20;;;;;;;41.37;24.88;94136.78;5071986;28;20399;-55
2021/07/01 06:23:47;;;;;;;13.32;7.75;;;;;;;41.21;24.48;94137.44;5092393;28;20384;-57
2021/07/01 06:26:29;;;;;;;9.38;7.20;;;;;;;41.83;23.70;94133.00;5072320;28;20389;-57
2021/07/01 06:29:11;;;;;;;10.88;7.22;;;;;;;41.82;23.50;94131.50;5071605;28;20390;-54
2021/07/01 06:31:52;;;;;;;10.75;7.25;;;;;;;41.63;24.60;94130.41;5071814;28;20397;-54
2021/07/01 06:34:33;;;;;;;12.52;8.10;;;;;;;41.63;24.66;94124.91;5108117;27;20377;-55
2021/07/01 06:37:15;;;;;;;9.35;7.07;;;;;;;41.35;23.79;94128.31;5072148;28;20401;-56
2021/07/01 06:40:16;;;;;;;13.40;8.75;;;;;;;41.33;24.21;94125.31;5072228;28;20397;-53
2021/07/01 06:43:20;;;;;;;9.85;8.02;;;;;;;41.41;24.48;94120.88;5071874;28;20385;-53
2021/07/01 06:46:20;;;;;;;14.25;9.18;;;;;;;42.10;23.85;94118.59;5072095;28;20382;-55
2021/07/01 06:49:20;;;;;;;9.52;8.23;;;;;;;42.44;23.29;94121.41;5112453;27;20136;-54
2021/07/01 06:52:21;;;;;;;12.45;8.35;;;;;;;41.89;23.90;94120.03;5071933;28;20382;-55
2021/07/01 06:55:21;;;;;;;12.23;8.10;;;;;;;42.30;22.70;94112.13;5071985;28;20397;-55
2021/07/01 06:58:40;;;;;;;10.57;8.20;;;;;;;42.37;22.92;94116.38;5111614;27;20888;-55
2021/07/01 07:01:22;;;;;;;11.73;8.75;;;;;;;42.16;23.32;94116.63;5092098;28;20711;-55
2021/07/01 07:04:02;;;;;;;13.98;8.23;;;;;;;42.33;23.33;94104.91;5071934;28;20390;-56
2021/07/01 07:06:45;;;;;;;16.52;8.90;;;;;;;42.31;23.44;94096.41;5092283;28;20122;-55
2021/07/01 07:09:25;;;;;;;11.32;8.52;;;;;;;42.26;23.41;94095.16;5092158;27;20386;-57
2021/07/01 07:12:07;;;;;;;10.63;8.93;;;;;;;42.51;23.16;94089.94;5071661;28;20390;-56
2021/07/01 07:14:48;;;;;;;15.40;9.15;;;;;;;42.49;22.91;94090.44;5092229;28;20730;-55
2021/07/01 07:17:30;;;;;;;14.75;9.65;;;;;;;42.33;23.12;94102.16;5092184;28;20858;-55
2021/07/01 07:20:14;;;;;;;14.68;8.52;;;;;;;42.73;22.67;94096.16;5071508;28;20394;-54
2021/07/01 07:22:57;;;;;;;13.45;9.07;;;;;;;42.97;22.54;94092.16;5068300;28;20386;-58
2021/07/01 07:25:40;;;;;;;16.63;8.48;;;;;;;43.27;20.73;94090.31;5133200;27;20415;-56
2021/07/01 07:28:24;;;;;;;14.43;9.10;;;;;;;42.95;22.80;94094.66;5071876;28;20387;-55
2021/07/01 07:31:05;;;;;;;13.32;8.68;;;;;;;43.17;21.39;94093.81;5072234;28;20390;-55
2021/07/01 07:33:46;;;;;;;12.05;8.35;;;;;;;43.61;20.98;94088.19;5072104;28;20393;-55
2021/07/01 07:36:28;;;;;;;12.82;7.68;;;;;;;43.24;21.60;94088.56;5071704;28;20393;-53
2021/07/01 07:39:08;;;;;;;12.77;8.20;;;;;;;42.96;21.41;94082.41;5071968;28;21007;-55
2021/07/01 07:41:50;;;;;;;14.93;8.20;;;;;;;43.37;21.66;94088.78;5071811;28;20382;-58
2021/07/01 07:44:32;;;;;;;13.13;7.97;;;;;;;43.72;20.97;94081.88;5072030;28;20391;-55
2021/07/01 07:47:16;;;;;;;15.07;7.88;;;;;;;43.23;21.43;94089.81;5071759;28;20383;-55
2021/07/01 07:49:58;;;;;;;11.07;7.85;;;;;;;43.12;20.97;94092.59;5072019;28;20385;-55
2021/07/01 07:52:59;;;;;;;11.93;7.55;;;;;;;43.39;21.00;94083.53;5101866;27;20125;-55
2021/07/01 07:55:42;;;;;;;15.95;7.95;;;;;;;43.71;21.07;94080.38;5065358;28;20390;-58
2021/07/01 07:58:24;;;;;;;14.35;8.27;;;;;;;43.53;20.34;94075.47;5071908;28;20402;-56
2021/07/01 08:01:08;;;;;;;11.13;7.90;;;;;;;43.88;20.87;94072.78;5072112;28;20899;-57
2021/07/01 08:03:52;;;;;;;13.98;8.45;;;;;;;43.57;21.32;94073.19;5071566;28;20386;-60
2021/07/01 08:06:34;;;;;;;16.70;8.40;;;;;;;43.94;20.36;94070.00;5071804;28;20889;-56
2021/07/01 08:09:15;;;;;;;14.75;8.00;;;;;;;44.23;19.87;94074.81;5071964;28;20395;-58
2021/07/01 08:11:57;;;;;;;13.38;9.13;;;;;;;43.81;20.54;94069.84;5072171;28;20421;-56
2021/07/01 08:14:42;;;;;;;10.98;8.05;;;;;;;43.78;20.60;94068.09;5072053;28;21267;-55
2021/07/01 08:17:25;;;;;;;12.43;7.35;;;;;;;44.11;20.07;94061.66;5130721;27;20120;-54
2021/07/01 08:20:08;;;;;;;11.45;7.60;;;;;;;44.38;20.04;94074.44;5071732;28;20395;-56
2021/07/01 08:22:51;;;;;;;12.48;7.30;;;;;;;44.18;19.96;94067.34;5058326;28;20388;-57
2021/07/01 08:25:33;;;;;;;14.45;7.13;;;;;;;44.33;19.54;94071.75;5071742;28;20689;-58
2021/07/01 08:28:20;;;;;;;15.52;7.35;;;;;;;44.41;19.27;94067.16;5071924;28;20386;-57
2021/07/01 08:31:13;;;;;;;15.57;7.70;;;;;;;44.61;18.79;94068.78;5071937;28;20395;-55
2021/07/01 08:33:55;;;;;;;12.65;7.03;;;;;;;44.83;18.36;94068.56;5071965;28;20831;-56
2021/07/01 08:36:36;;;;;;;11.50;6.72;;;;;;;44.67;17.97;94066.69;5071902;28;20863;-56
2021/07/01 08:39:18;;;;;;;16.13;7.00;;;;;;;44.47;18.35;94065.88;5072148;28;20906;-57
2021/07/01 08:42:02;;;;;;;15.63;7.40;;;;;;;44.74;17.47;94055.09;5071855;28;20789;-56
2021/07/01 08:44:45;;;;;;;10.18;6.40;;;;;;;44.91;17.50;94066.72;5112638;27;20120;-56
2021/07/01 08:47:35;;;;;;;25.75;20.58;;;;;;;44.69;17.02;94055.91;5071818;28;20393;-58
2021/07/01 08:50:17;;;;;;;23.00;20.20;;;;;;;44.83;17.16;94055.53;5071775;28;20180;-56
2021/07/01 08:53:10;;;;;;;13.02;8.40;;;;;;;44.72;16.66;94052.13;5112718;27;20152;-56
2021/07/01 08:55:52;;;;;;;12.90;6.68;;;;;;;44.52;16.78;94045.81;5071718;28;20398;-56
2021/07/01 08:58:33;;;;;;;12.82;6.20;;;;;;;44.83;16.88;94041.00;5071913;28;20860;-56
2021/07/01 09:01:18;;;;;;;15.52;7.22;;;;;;;44.87;16.49;94046.97;5071862;28;20421;-59
2021/07/01 09:03:59;;;;;;;13.80;5.88;;;;;;;45.30;16.29;94044.25;5098130;27;20136;-57
2021/07/01 09:06:40;;;;;;;13.13;6.53;;;;;;;44.70;16.27;94040.88;5071886;28;20732;-56
2021/07/01 09:09:23;;;;;;;10.55;5.70;;;;;;;44.80;16.18;94042.03;5092351;27;20401;-57
2021/07/01 09:12:07;;;;;;;14.05;5.82;;;;;;;44.90;15.94;94034.91;5071896;28;20386;-56
2021/07/01 09:14:57;;;;;;;16.90;6.28;;;;;;;44.77;15.71;94037.56;5072051;28;20382;-56
2021/07/01 09:17:47;;;;;;;11.82;5.63;;;;;;;44.73;15.42;94034.31;5071763;28;20405;-58
2021/07/01 09:20:36;;;;;;;16.95;6.13;;;;;;;44.93;15.56;94033.88;5071820;28;20375;-56
2021/07/01 09:23:18;;;;;;;14.00;5.75;;;;;;;44.99;15.90;94031.78;5072202;27;20883;-56
2021/07/01 09:26:01;;;;;;;11.85;6.32;;;;;;;45.09;15.57;94024.69;5071691;28;20383;-55
2021/07/01 09:28:42;;;;;;;11.32;6.50;;;;;;;44.68;15.67;94029.63;5071897;28;20406;-56
2021/07/01 09:31:25;;;;;;;12.85;6.07;;;;;;;44.64;16.22;94026.41;5071891;28;20379;-56
2021/07/01 09:34:07;;;;;;;16.50;7.90;;;;;;;45.02;15.75;94019.72;5071715;28;21200;-58
2021/07/01 09:36:48;;;;;;;20.90;13.32;;;;;;;45.06;16.08;94019.47;5071776;28;20906;-57
2021/07/01 09:39:32;;;;;;;16.35;8.18;;;;;;;44.87;15.05;94022.16;5072172;28;20392;-56
2021/07/01 09:42:14;;;;;;;16.27;7.22;;;;;;;44.64;15.55;94012.63;5071874;28;20863;-56
2021/07/01 09:45:04;;;;;;;15.77;7.38;;;;;;;45.12;14.57;94007.09;5071968;28;20417;-57
2021/07/01 09:47:46;;;;;;;25.27;12.52;;;;;;;44.74;14.87;94011.75;5071743;28;20378;-57
2021/07/01 09:50:27;;;;;;;32.08;16.95;;;;;;;44.75;15.20;94006.97;5071743;28;20391;-55
2021/07/01 09:53:09;;;;;;;61.60;28.38;;;;;;;43.86;15.06;93998.22;5071295;28;20871;-57
2021/07/01 09:55:53;;;;;;;28.75;12.75;;;;;;;44.92;14.36;93999.31;5054774;28;20387;-55
2021/07/01 09:58:49;;;;;;;21.85;10.27;;;;;;;44.35;15.92;94003.84;5060861;28;20384;-57
2021/07/01 10:01:37;;;;;;;22.50;9.63;;;;;;;44.37;16.11;93995.09;5132909;27;20115;-59
2021/07/01 10:04:19;;;;;;;15.50;7.88;;;;;;;44.31;15.99;93997.91;5132836;27;20383;-57
2021/07/01 10:07:09;;;;;;;19.02;7.93;;;;;;;44.19;15.44;93985.47;5072181;28;20379;-56
2021/07/01 10:09:57;;;;;;;14.40;6.80;;;;;;;43.68;15.34;93987.84;5092323;27;20399;-56
2021/07/01 10:13:08;;;;;;;13.00;6.63;;;;;;;43.93;15.16;93980.41;5072188;28;20386;-55
2021/07/01 10:15:52;;;;;;;14.77;7.00;;;;;;;44.06;15.57;93979.81;5071705;28;20893;-55
2021/07/01 10:18:42;;;;;;;13.65;6.30;;;;;;;44.02;15.43;93976.59;5072187;27;20395;-57
2021/07/01 10:21:25;;;;;;;15.75;6.07;;;;;;;44.22;15.89;93967.91;5100373;27;20400;-55
2021/07/01 10:24:20;;;;;;;17.25;6.75;;;;;;;44.12;15.52;93961.25;5071354;28;20884;-57
2021/07/01 10:27:03;;;;;;;14.73;7.43;;;;;;;44.39;16.13;93960.25;5072329;28;20382;-55
2021/07/01 10:29:51;;;;;;;11.55;6.32;;;;;;;44.46;15.00;93959.69;5092338;27;20385;-61
2021/07/01 10:33:00;;;;;;;12.77;6.63;;;;;;;44.47;14.95;93960.44;5112898;27;20387;-56
2021/07/01 10:35:41;;;;;;;13.82;6.40;;;;;;;44.79;13.92;93960.59;5071995;27;20880;-57
2021/07/01 10:38:22;;;;;;;16.33;6.63;;;;;;;44.56;14.80;93947.06;5057015;28;20396;-58
2021/07/01 10:41:04;;;;;;;14.20;6.28;;;;;;;44.79;15.34;93935.78;5071937;28;20378;-55
2021/07/01 10:43:47;;;;;;;12.85;6.38;;;;;;;44.48;14.24;93932.38;5091876;27;20889;-58
2021/07/01 10:46:40;;;;;;;20.60;6.60;;;;;;;44.76;13.89;93926.53;5064966;28;20139;-54
2021/07/01 10:49:33;;;;;;;16.90;7.03;;;;;;;44.31;14.26;93922.78;5072076;28;20396;-55
2021/07/01 10:52:14;;;;;;;16.15;6.88;;;;;;;44.73;14.00;93921.31;5071966;28;20970;-56
2021/07/01 10:54:59;;;;;;;17.10;6.28;;;;;;;44.68;13.71;93916.63;5115727;27;20129;-58
2021/07/01 10:57:57;;;;;;;15.50;6.20;;;;;;;44.46;14.21;93912.84;5128875;27;20478;-58
2021/07/01 11:00:43;;;;;;;17.95;6.68;;;;;;;44.75;13.76;93913.28;5071930;28;20389;-56
2021/07/01 11:03:41;;;;;;;16.23;6.20;;;;;;;44.96;13.40;93899.75;5112089;27;20724;-56
2021/07/01 11:06:21;;;;;;;15.85;6.35;;;;;;;45.07;13.51;93894.09;5072181;28;20382;-58
2021/07/01 11:09:08;;;;;;;21.17;7.53;;;;;;;45.33;12.92;93890.75;5072183;28;20394;-57
2021/07/01 11:12:00;;;;;;;20.55;7.63;;;;;;;44.59;14.56;93896.44;5071781;28;20701;-60
2021/07/01 11:14:47;;;;;;;17.45;6.45;;;;;;;44.22;14.55;93882.53;5091947;28;20381;-58
2021/07/01 11:17:32;;;;;;;16.05;6.47;;;;;;;44.11;14.57;93879.91;5072069;28;20391;-57
2021/07/01 11:20:18;;;;;;;20.35;7.18;;;;;;;44.17;14.83;93872.34;5071952;28;20853;-59
2021/07/01 11:22:58;;;;;;;16.40;5.95;;;;;;;44.10;14.97;93867.41;5072185;28;20395;-57
2021/07/01 11:25:43;;;;;;;16.20;6.55;;;;;;;44.06;15.31;93866.94;5071987;28;20134;-60
2021/07/01 11:28:29;;;;;;;14.77;7.13;;;;;;;44.04;15.09;93869.47;5071888;28;20383;-58
2021/07/01 11:31:11;;;;;;;18.15;6.75;;;;;;;44.47;15.15;93862.00;5153643;27;20127;-57
2021/07/01 11:33:52;;;;;;;17.52;7.30;;;;;;;44.62;14.75;93847.81;5071669;28;20385;-58
2021/07/01 11:36:35;;;;;;;13.65;6.35;;;;;;;44.24;15.15;93842.22;5072174;28;20872;-58
2021/07/01 11:39:22;;;;;;;15.90;7.28;;;;;;;44.50;14.53;93838.91;5072204;28;20379;-59
2021/07/01 11:42:04;;;;;;;21.77;7.32;;;;;;;43.99;14.36;93838.72;5072009;28;20387;-59
2021/07/01 11:44:46;;;;;;;17.67;6.35;;;;;;;43.92;14.86;93847.53;5071864;28;20398;-55
2021/07/01 11:47:29;;;;;;;16.83;6.93;;;;;;;44.38;14.66;93826.53;5071851;28;20704;-57
2021/07/01 11:50:16;;;;;;;18.80;6.55;;;;;;;43.93;15.06;93827.00;5112656;27;20485;-56
2021/07/01 11:52:56;;;;;;;18.58;6.65;;;;;;;43.98;14.87;93828.19;5072222;28;20394;-55
2021/07/01 11:55:39;;;;;;;18.17;6.43;;;;;;;43.73;15.08;93819.22;5133219;27;19923;-56
2021/07/01 11:58:20;;;;;;;20.88;6.72;;;;;;;44.25;14.25;93807.19;5123509;27;19927;-57
2021/07/01 12:01:01;;;;;;;17.92;6.57;;;;;;;43.83;14.99;93801.09;5071996;28;20720;-56
2021/07/01 12:03:47;;;;;;;13.48;6.43;;;;;;;44.13;14.30;93794.78;5071928;28;20405;-55
2021/07/01 12:07:00;;;;;;;15.90;6.32;;;;;;;44.21;15.07;93790.19;5072120;28;20397;-58
2021/07/01 12:09:43;;;;;;;15.45;6.47;;;;;;;43.90;15.04;93792.25;5072152;27;20393;-58
2021/07/01 12:12:32;;;;;;;14.35;6.40;;;;;;;43.77;14.97;93805.16;5071908;28;20379;-56
2021/07/01 12:15:14;;;;;;;14.13;6.40;;;;;;;43.79;14.77;93799.91;5071745;28;20735;-57
2021/07/01 12:17:58;;;;;;;20.13;6.88;;;;;;;44.25;14.81;93793.41;5052781;28;20138;-57
2021/07/01 12:20:54;;;;;;;16.55;6.68;;;;;;;44.76;13.72;93799.75;5130687;27;20120;-56
2021/07/01 12:23:47;;;;;;;20.58;7.10;;;;;;;44.41;13.91;93797.94;5112383;27;20437;-60
2021/07/01 12:26:40;;;;;;;14.10;6.53;;;;;;;43.90;14.52;93789.50;5133319;27;20378;-60
2021/07/01 12:29:45;;;;;;;19.83;6.10;;;;;;;44.07;13.07;93769.31;5071876;28;20390;-59
2021/07/01 12:32:28;;;;;;;28.10;7.10;;;;;;;44.59;13.39;93772.44;5071953;28;20859;-55
2021/07/01 12:35:32;;;;;;;21.05;6.47;;;;;;;44.02;14.23;93778.38;5091988;27;20381;-55
2021/07/01 12:38:13;;;;;;;19.73;5.50;;;;;;;44.22;11.98;93769.63;5092350;27;20378;-57
2021/07/01 12:41:00;;;;;;;15.20;4.70;;;;;;;44.34;10.89;93759.97;5071910;27;20391;-56
2021/07/01 12:43:47;;;;;;;17.60;5.40;;;;;;;44.61;11.28;93749.13;5085028;27;1320001;-58
2021/07/01 12:46:47;;;;;;;15.40;4.88;;;;;;;44.34;11.06;93748.97;5071933;28;20393;-56
2021/07/01 12:49:34;;;;;;;17.10;5.75;;;;;;;44.05;13.28;93760.81;5112777;27;20395;-56
2021/07/01 12:52:18;;;;;;;20.10;6.30;;;;;;;43.33;14.84;93754.78;5090088;27;20393;-58
2021/07/01 12:55:00;;;;;;;16.40;6.13;;;;;;;43.48;14.98;93754.41;5071692;28;20405;-57
2021/07/01 12:57:40;;;;;;;15.80;5.70;;;;;;;42.95;15.58;93748.34;5071877;28;20395;-56
2021/07/01 13:00:21;;;;;;;20.05;5.72;;;;;;;43.21;15.14;93761.63;5060413;28;20398;-56
2021/07/01 13:03:04;;;;;;;15.75;5.18;;;;;;;43.11;15.11;93757.69;5072244;27;20876;-56
2021/07/01 13:05:46;;;;;;;15.82;5.15;;;;;;;42.82;15.70;93756.38;5071850;28;20393;-57